createdAt,value
2018-06-30T00:01:50.201Z,0.50
2018-06-30T00:04:18.224Z,0.80
2018-06-30T00:06:46.281Z,0.90
2018-06-30T00:09:14.329Z,0.60
2018-06-30T00:11:42.360Z,0.73
2018-06-30T00:14:10.424Z,0.60
2018-06-30T00:16:38.460Z,0.77
2018-06-30T00:19:06.577Z,0.80
2018-06-30T00:21:34.617Z,0.53
2018-06-30T00:24:02.677Z,0.97
2018-06-30T00:26:30.733Z,0.97
2018-06-30T00:28:58.817Z,0.80
2018-06-30T00:31:26.884Z,0.87
2018-06-30T00:33:54.929Z,0.97
2018-06-30T00:36:22.988Z,0.70
2018-06-30T00:38:51.037Z,0.70
2018-06-30T00:41:19.101Z,0.87
2018-06-30T00:43:47.167Z,0.80
2018-06-30T00:46:15.244Z,0.80
2018-06-30T00:48:43.285Z,0.70
2018-06-30T00:51:11.356Z,0.60
2018-06-30T00:53:39.425Z,1.17
2018-06-30T00:56:07.458Z,0.90
2018-06-30T00:58:35.505Z,0.50
2018-06-30T01:01:03.524Z,0.93
2018-06-30T01:03:31.581Z,0.80
2018-06-30T01:05:59.721Z,0.50
2018-06-30T01:08:27.760Z,0.80
2018-06-30T01:10:55.828Z,0.70
2018-06-30T01:13:23.877Z,0.77
2018-06-30T01:15:51.949Z,0.57
2018-06-30T01:18:20.002Z,0.67
2018-06-30T01:20:48.077Z,1.03
2018-06-30T01:23:16.176Z,0.40
2018-06-30T01:25:44.196Z,0.60
2018-06-30T01:28:12.329Z,0.80
2018-06-30T01:30:40.370Z,0.60
2018-06-30T01:33:08.430Z,0.83
2018-06-30T01:35:36.504Z,0.83
2018-06-30T01:38:04.526Z,1.10
2018-06-30T01:40:32.565Z,0.90
2018-06-30T01:43:00.608Z,1.00
2018-06-30T01:45:28.713Z,0.83
2018-06-30T01:47:56.784Z,0.90
2018-06-30T01:50:24.817Z,1.33
2018-06-30T01:52:52.868Z,1.00
2018-06-30T01:55:20.901Z,0.70
2018-06-30T01:57:49.025Z,0.90
2018-06-30T02:00:17.082Z,1.13
2018-06-30T02:02:45.120Z,1.07
2018-06-30T02:05:13.173Z,0.90
2018-06-30T02:07:41.245Z,0.90
2018-06-30T02:10:09.273Z,0.83
2018-06-30T02:12:37.339Z,0.97
2018-06-30T02:15:05.793Z,1.37
2018-06-30T02:17:33.860Z,0.80
2018-06-30T02:20:01.909Z,1.10
2018-06-30T02:22:29.975Z,1.30
2018-06-30T02:24:57.996Z,1.23
2018-06-30T02:27:26.065Z,0.80
2018-06-30T02:29:54.114Z,1.00
2018-06-30T02:32:22.149Z,1.00
2018-06-30T02:34:50.212Z,1.47
2018-06-30T02:37:18.261Z,1.37
2018-06-30T02:39:46.308Z,1.10
2018-06-30T02:42:14.414Z,1.47
2018-06-30T02:44:42.430Z,1.47
2018-06-30T02:47:10.472Z,1.43
2018-06-30T02:49:38.529Z,1.30
2018-06-30T02:52:06.627Z,1.67
2018-06-30T02:54:35.479Z,1.60
2018-06-30T02:57:03.548Z,1.63
2018-06-30T02:59:31.574Z,1.43
2018-06-30T03:01:59.627Z,1.53
2018-06-30T03:04:27.713Z,1.40
2018-06-30T03:06:56.149Z,1.30
2018-06-30T03:09:24.198Z,1.90
2018-06-30T03:11:52.321Z,1.40
2018-06-30T03:14:21.061Z,1.60
2018-06-30T03:16:49.129Z,2.20
2018-06-30T03:19:17.186Z,1.67
2018-06-30T03:21:45.397Z,1.80
2018-06-30T03:24:13.455Z,1.80
2018-06-30T03:26:41.519Z,1.87
2018-06-30T03:29:09.604Z,2.13
2018-06-30T03:31:37.759Z,1.90
2018-06-30T03:34:06.005Z,1.97
2018-06-30T03:36:34.057Z,2.20
2018-06-30T03:39:02.084Z,1.30
2018-06-30T03:41:30.125Z,1.77
2018-06-30T03:43:58.232Z,1.50
2018-06-30T03:46:26.286Z,2.13
2018-06-30T03:48:54.361Z,2.40
2018-06-30T03:51:22.465Z,2.10
2018-06-30T03:53:50.517Z,1.90
2018-06-30T03:56:18.551Z,2.20
2018-06-30T03:58:46.629Z,1.90
2018-06-30T04:01:14.726Z,2.03
2018-06-30T04:03:42.785Z,2.30
2018-06-30T04:06:10.821Z,2.33
2018-06-30T04:08:38.872Z,2.97
2018-06-30T04:11:06.944Z,2.13
2018-06-30T04:13:35.038Z,2.20
2018-06-30T04:16:02.864Z,4.33
2018-06-30T04:18:30.929Z,3.97
2018-06-30T04:20:59.098Z,3.37
2018-06-30T04:23:27.152Z,2.33
2018-06-30T04:25:55.185Z,3.27
2018-06-30T04:28:23.242Z,3.20
2018-06-30T04:30:51.337Z,2.37
2018-06-30T04:33:19.397Z,2.87
2018-06-30T04:35:47.432Z,2.27
2018-06-30T04:38:15.492Z,1.70
2018-06-30T04:40:43.522Z,1.77
2018-06-30T04:43:11.588Z,1.87
2018-06-30T04:45:39.644Z,2.33
2018-06-30T04:48:08.138Z,1.57
2018-06-30T04:50:36.405Z,2.10
2018-06-30T04:53:04.449Z,1.50
2018-06-30T04:55:32.561Z,1.97
2018-06-30T04:58:00.597Z,1.60
2018-06-30T05:00:28.633Z,1.33
2018-06-30T05:02:56.740Z,1.63
2018-06-30T05:05:24.907Z,1.60
2018-06-30T05:10:43.864Z,1.70
2018-06-30T05:13:11.989Z,1.60
2018-06-30T05:15:40.082Z,1.40
2018-06-30T05:18:08.187Z,1.50
2018-06-30T05:20:36.400Z,1.33
2018-06-30T05:23:04.489Z,1.43
2018-06-30T05:25:32.546Z,1.67
2018-06-30T05:28:00.690Z,1.37
2018-06-30T05:30:28.766Z,2.07
2018-06-30T05:32:56.817Z,1.10
2018-06-30T05:35:24.914Z,1.30
2018-06-30T05:37:53.158Z,1.03
2018-06-30T05:40:21.260Z,1.10
2018-06-30T05:42:49.315Z,1.00
2018-06-30T05:45:17.397Z,0.87
2018-06-30T05:47:45.441Z,1.00
2018-06-30T05:50:13.505Z,0.80
2018-06-30T05:52:41.623Z,0.67
2018-06-30T05:55:09.885Z,0.63
2018-06-30T05:57:37.968Z,0.90
2018-06-30T06:00:06.272Z,0.60
2018-06-30T06:02:34.288Z,0.87
2018-06-30T06:05:02.483Z,0.53
2018-06-30T06:07:30.537Z,1.03
2018-06-30T06:09:58.612Z,1.03
2018-06-30T06:12:26.654Z,1.00
2018-06-30T06:14:54.903Z,0.80
2018-06-30T06:17:22.965Z,0.70
2018-06-30T06:19:51.015Z,0.60
2018-06-30T06:22:19.261Z,0.77
2018-06-30T06:24:47.100Z,0.60
2018-06-30T06:27:15.169Z,0.50
2018-06-30T06:29:43.313Z,0.83
2018-06-30T06:32:11.344Z,0.80
2018-06-30T06:34:39.397Z,1.13
2018-06-30T06:37:07.547Z,0.77
2018-06-30T06:39:35.704Z,0.60
2018-06-30T06:42:03.858Z,0.60
2018-06-30T06:44:32.016Z,0.40
2018-06-30T06:47:00.087Z,0.37
2018-06-30T06:49:28.147Z,0.50
2018-06-30T06:51:56.218Z,0.40
2018-06-30T06:54:24.304Z,0.33
2018-06-30T06:56:52.374Z,0.50
2018-06-30T06:59:20.429Z,0.40
2018-06-30T07:01:48.469Z,0.40
2018-06-30T07:04:16.412Z,0.77
2018-06-30T07:06:44.440Z,0.80
2018-06-30T07:09:12.775Z,0.63
2018-06-30T07:11:41.076Z,0.60
2018-06-30T07:14:10.238Z,0.27
2018-06-30T07:16:38.549Z,0.20
2018-06-30T07:19:06.581Z,0.60
2018-06-30T07:21:34.729Z,0.60
2018-06-30T07:24:02.873Z,0.37
2018-06-30T07:26:30.973Z,0.50
2018-06-30T07:28:59.012Z,0.53
2018-06-30T07:31:27.062Z,0.57
2018-06-30T07:33:55.196Z,0.30
2018-06-30T07:36:23.236Z,0.30
2018-06-30T07:38:51.780Z,0.60
2018-06-30T07:41:19.874Z,0.40
2018-06-30T07:43:47.968Z,0.83
2018-06-30T07:46:16.081Z,0.67
2018-06-30T07:48:44.165Z,0.43
2018-06-30T07:51:12.228Z,0.37
2018-06-30T07:53:40.345Z,0.50
2018-06-30T07:56:08.411Z,0.40
2018-06-30T07:58:36.440Z,0.20
2018-06-30T08:01:04.503Z,0.50
2018-06-30T08:03:32.670Z,0.40
2018-06-30T08:06:00.853Z,0.57
2018-06-30T08:08:28.914Z,0.57
2018-06-30T08:10:56.967Z,0.30
2018-06-30T08:13:25.075Z,0.40
2018-06-30T08:15:53.147Z,0.40
2018-06-30T08:18:21.200Z,0.37
2018-06-30T08:20:49.246Z,0.37
2018-06-30T08:23:17.321Z,0.20
2018-06-30T08:25:45.349Z,0.50
2018-06-30T08:28:13.596Z,0.67
2018-06-30T08:30:41.605Z,0.40
2018-06-30T08:33:09.684Z,0.40
2018-06-30T08:35:37.825Z,0.67
2018-06-30T08:38:05.737Z,0.30
2018-06-30T08:40:33.813Z,0.57
2018-06-30T08:43:01.870Z,0.33
2018-06-30T08:45:29.960Z,0.23
2018-06-30T10:09:55.819Z,1.60
2018-06-30T10:12:23.860Z,0.60
2018-06-30T10:14:51.949Z,0.90
2018-06-30T10:17:19.996Z,0.60
2018-06-30T10:19:48.296Z,0.50
2018-06-30T10:22:16.364Z,0.10
2018-06-30T10:24:44.494Z,0.20
2018-06-30T10:27:12.733Z,0.40
2018-06-30T10:29:40.793Z,0.20
2018-06-30T10:32:08.848Z,0.90
2018-06-30T10:34:36.932Z,0.13
2018-06-30T10:37:04.999Z,0.70
2018-06-30T10:39:33.037Z,0.53
2018-06-30T10:42:01.116Z,0.30
2018-06-30T10:44:29.203Z,0.37
2018-06-30T10:46:57.220Z,0.80
2018-06-30T10:49:25.315Z,0.50
2018-06-30T10:51:53.636Z,0.43
2018-06-30T10:54:21.719Z,1.00
2018-06-30T10:56:49.752Z,0.70
2018-06-30T10:59:17.824Z,0.73
2018-06-30T11:01:45.914Z,0.70
2018-06-30T11:04:13.967Z,0.30
2018-06-30T11:06:41.982Z,0.47
2018-06-30T11:09:11.796Z,0.60
2018-06-30T11:11:39.954Z,0.57
2018-06-30T11:14:08.006Z,0.70
2018-06-30T11:16:36.314Z,0.60
2018-06-30T11:19:04.405Z,0.50
2018-06-30T11:21:32.462Z,0.60
2018-06-30T11:24:00.504Z,0.30
2018-06-30T11:26:28.825Z,0.33
2018-06-30T11:28:56.878Z,0.27
2018-06-30T11:31:24.912Z,0.40
2018-06-30T11:33:52.985Z,0.20
2018-06-30T11:36:21.044Z,0.40
2018-06-30T11:38:49.104Z,0.40
2018-06-30T11:41:17.168Z,0.50
2018-06-30T11:43:45.469Z,0.10
2018-06-30T11:46:13.625Z,0.37
2018-06-30T11:48:41.690Z,0.20
2018-06-30T11:51:09.732Z,0.77
2018-06-30T11:53:37.831Z,0.20
2018-06-30T11:56:05.873Z,0.50
2018-06-30T11:58:33.899Z,0.20
2018-06-30T12:01:01.961Z,0.30
2018-06-30T12:06:04.657Z,0.30
2018-06-30T12:08:32.900Z,0.10
2018-06-30T12:11:00.966Z,0.30
2018-06-30T12:13:28.993Z,0.40
2018-06-30T12:15:57.061Z,0.23
2018-06-30T12:18:25.103Z,0.47
2018-06-30T12:20:53.169Z,0.47
2018-06-30T12:23:21.248Z,0.23
2018-06-30T12:25:49.363Z,0.40
2018-06-30T12:28:17.397Z,0.30
2018-06-30T12:30:45.613Z,0.37
2018-06-30T12:33:13.692Z,0.50
2018-06-30T12:35:41.776Z,0.50
2018-06-30T12:38:09.835Z,0.20
2018-06-30T12:40:37.906Z,1.03
2018-06-30T12:43:05.813Z,0.40
2018-06-30T12:45:33.861Z,0.97
2018-06-30T12:48:01.937Z,0.60
2018-06-30T12:50:30.029Z,0.40
2018-06-30T12:52:58.467Z,0.33
2018-06-30T12:55:26.539Z,0.60
2018-06-30T12:57:54.638Z,0.30
2018-06-30T13:00:22.651Z,0.30
2018-06-30T13:02:50.684Z,0.57
2018-06-30T13:05:18.753Z,0.40
2018-06-30T13:07:46.821Z,0.10
2018-06-30T13:10:14.852Z,0.50
2018-06-30T13:12:42.916Z,0.60
2018-06-30T13:15:10.952Z,0.60
2018-06-30T13:17:40.303Z,0.30
2018-06-30T13:20:08.384Z,0.40
2018-06-30T13:22:36.445Z,0.30
2018-06-30T13:25:04.525Z,0.27
2018-06-30T13:27:32.617Z,0.40
2018-06-30T13:30:00.668Z,0.70
2018-06-30T13:32:34.886Z,0.23
2018-06-30T13:35:02.971Z,0.70
2018-06-30T13:37:31.013Z,0.20
2018-06-30T13:39:59.052Z,0.63
2018-06-30T13:42:27.125Z,0.40
2018-06-30T13:44:55.160Z,0.20
2018-06-30T13:47:23.225Z,0.53
2018-06-30T13:49:51.298Z,0.57
2018-06-30T13:52:19.337Z,0.73
2018-06-30T13:54:47.423Z,0.57
2018-06-30T13:57:15.477Z,0.23
2018-06-30T13:59:43.526Z,0.50
2018-06-30T14:02:11.568Z,0.20
2018-06-30T14:04:39.395Z,0.30
2018-06-30T14:07:07.481Z,0.70
2018-06-30T14:09:35.525Z,0.23
2018-06-30T14:12:03.576Z,0.47
2018-06-30T14:14:31.631Z,0.40
2018-06-30T14:16:59.718Z,0.33
2018-06-30T14:19:27.756Z,0.60
2018-06-30T14:21:55.857Z,0.60
2018-06-30T14:24:23.932Z,0.60
2018-06-30T14:26:51.981Z,0.50
2018-06-30T14:29:20.100Z,0.40
2018-06-30T14:31:48.141Z,0.60
2018-06-30T14:34:16.573Z,0.40
2018-06-30T14:36:44.624Z,0.30
2018-06-30T14:39:13.318Z,0.57
2018-06-30T14:41:41.381Z,0.40
2018-06-30T14:44:09.420Z,0.50
2018-06-30T14:46:37.557Z,0.50
2018-06-30T14:49:05.906Z,0.77
2018-06-30T14:51:34.512Z,0.90
2018-06-30T14:54:02.661Z,1.70
2018-06-30T14:56:30.715Z,0.90
2018-06-30T14:58:58.746Z,3.63
2018-06-30T15:01:26.869Z,2.87
2018-06-30T15:03:54.905Z,0.63
2018-06-30T15:06:22.997Z,0.63
2018-06-30T15:08:51.034Z,0.30
2018-06-30T15:11:19.066Z,0.53
2018-06-30T15:13:47.139Z,0.40
2018-06-30T15:16:15.205Z,0.30
2018-06-30T15:18:43.348Z,0.40
2018-06-30T15:21:11.366Z,0.60
2018-06-30T15:23:39.472Z,0.83
2018-06-30T15:26:07.543Z,0.60
2018-06-30T15:28:35.952Z,0.37
2018-06-30T15:31:06.201Z,0.60
2018-06-30T15:33:34.261Z,0.43
2018-06-30T15:36:02.394Z,0.73
2018-06-30T15:38:30.464Z,0.70
2018-06-30T15:40:58.533Z,0.43
2018-06-30T15:43:26.569Z,0.40
2018-06-30T15:45:54.917Z,0.50
2018-06-30T15:48:23.006Z,0.90
2018-06-30T15:50:51.044Z,1.33
2018-06-30T15:53:19.759Z,1.23
2018-06-30T15:55:47.789Z,0.47
2018-06-30T15:58:15.860Z,0.50
2018-06-30T16:00:44.421Z,0.80
2018-06-30T16:03:12.461Z,0.87
2018-06-30T16:05:40.512Z,0.40
2018-06-30T16:08:08.762Z,0.40
2018-06-30T16:10:36.822Z,0.47
2018-06-30T16:13:04.972Z,0.50
2018-06-30T16:15:33.000Z,0.43
2018-06-30T16:18:01.047Z,0.80
2018-06-30T16:20:29.083Z,0.40
2018-06-30T16:22:57.177Z,0.53
2018-06-30T16:25:25.161Z,0.83
2018-06-30T16:27:53.233Z,0.57
2018-06-30T16:30:21.364Z,0.53
2018-06-30T16:32:49.345Z,0.47
2018-06-30T16:35:17.418Z,0.30
2018-06-30T16:37:45.252Z,0.87
2018-06-30T16:40:13.316Z,1.07
2018-06-30T16:42:41.377Z,0.60
2018-06-30T16:45:09.408Z,0.60
2018-06-30T16:47:37.466Z,0.50
2018-06-30T16:50:06.176Z,0.47
2018-06-30T16:52:34.323Z,0.63
2018-06-30T16:55:02.389Z,0.63
2018-06-30T16:57:30.421Z,0.70
2018-06-30T16:59:58.482Z,0.40
2018-06-30T17:02:26.545Z,0.50
2018-06-30T17:04:54.616Z,0.70
2018-06-30T17:07:22.771Z,0.50
2018-06-30T17:09:50.773Z,0.73
2018-06-30T17:12:18.953Z,1.00
2018-06-30T17:14:47.110Z,0.70
2018-06-30T17:17:15.152Z,0.43
2018-06-30T17:19:43.208Z,0.40
2018-06-30T17:22:11.139Z,0.50
2018-06-30T17:24:39.176Z,0.50
2018-06-30T17:27:07.237Z,0.50
2018-06-30T17:29:35.329Z,0.63
2018-06-30T17:32:03.395Z,0.40
2018-06-30T17:34:31.476Z,0.63
2018-06-30T17:36:59.537Z,0.53
2018-06-30T17:39:27.442Z,0.97
2018-06-30T17:41:55.529Z,1.00
2018-06-30T17:44:23.580Z,0.90
2018-06-30T17:46:51.652Z,0.70
2018-06-30T17:49:19.695Z,0.60
2018-06-30T17:51:47.737Z,0.60
2018-06-30T17:54:15.791Z,0.47
2018-06-30T17:56:43.840Z,0.93
2018-06-30T17:59:11.915Z,0.63
2018-06-30T18:01:39.948Z,0.60
2018-06-30T18:04:08.025Z,0.60
2018-06-30T18:06:36.111Z,0.77
2018-06-30T18:09:07.164Z,0.67
2018-06-30T18:11:39.512Z,0.60
2018-06-30T18:14:08.066Z,0.70
2018-06-30T18:16:36.055Z,1.10
2018-06-30T18:19:04.176Z,0.83
2018-06-30T18:21:32.204Z,0.50
2018-06-30T18:24:00.292Z,0.80
2018-06-30T18:26:28.422Z,0.50
2018-06-30T18:28:56.465Z,0.50
2018-06-30T18:31:24.520Z,1.03
2018-06-30T18:33:52.550Z,0.83
2018-06-30T18:36:20.616Z,0.87
2018-06-30T18:38:48.669Z,0.70
2018-06-30T18:41:16.743Z,0.80
2018-06-30T18:43:44.809Z,0.73
2018-06-30T18:46:12.868Z,0.63
2018-06-30T18:48:40.932Z,0.77
2018-06-30T18:51:08.988Z,0.70
2018-06-30T18:53:37.077Z,0.60
2018-06-30T18:56:05.114Z,0.40
2018-06-30T18:58:33.205Z,0.67
2018-06-30T19:01:01.254Z,0.50
2018-06-30T19:03:29.292Z,0.60
2018-06-30T19:05:57.347Z,0.63
2018-06-30T19:08:25.431Z,0.80
2018-06-30T19:10:53.624Z,0.57
2018-06-30T19:13:21.692Z,0.90
2018-06-30T19:15:49.767Z,0.60
2018-06-30T19:18:17.848Z,0.60
2018-06-30T19:20:45.953Z,0.50
2018-06-30T19:23:14.024Z,0.60
2018-06-30T19:25:42.072Z,0.53
2018-06-30T19:28:10.142Z,0.80
2018-06-30T19:30:38.361Z,0.50
2018-06-30T19:33:06.421Z,0.40
2018-06-30T19:35:34.458Z,0.73
2018-06-30T19:38:02.529Z,0.70
2018-06-30T19:40:30.564Z,0.57
2018-06-30T19:42:58.620Z,1.10
2018-06-30T19:45:26.685Z,0.70
2018-06-30T19:47:54.859Z,1.03
2018-06-30T19:50:24.573Z,0.77
2018-06-30T19:52:52.782Z,0.93
2018-06-30T19:55:20.926Z,0.80
2018-06-30T19:57:49.089Z,0.80
2018-06-30T20:00:18.235Z,0.70
2018-06-30T20:02:46.301Z,0.73
2018-06-30T20:07:55.692Z,0.73
2018-06-30T20:10:24.892Z,0.77
2018-06-30T20:12:53.135Z,0.60
2018-06-30T20:15:21.382Z,1.23
2018-06-30T20:17:50.677Z,1.47
2018-06-30T20:20:19.476Z,1.00
2018-06-30T20:22:47.524Z,0.60
2018-06-30T20:25:15.599Z,0.87
2018-06-30T20:27:43.676Z,0.70
2018-06-30T20:30:11.748Z,0.90
2018-06-30T20:32:40.286Z,1.23
2018-06-30T20:35:08.530Z,0.83
2018-06-30T20:37:36.403Z,1.03
2018-06-30T20:40:04.626Z,0.90
2018-06-30T20:42:32.670Z,0.80
2018-06-30T20:45:00.736Z,0.60
2018-06-30T20:47:28.994Z,0.80
2018-06-30T20:49:57.144Z,1.20
2018-06-30T20:52:25.244Z,0.70
2018-06-30T20:54:53.299Z,0.70
2018-06-30T20:57:21.357Z,0.60
2018-06-30T20:59:49.466Z,0.70
2018-06-30T21:02:17.505Z,0.83
2018-06-30T21:04:45.565Z,0.60
2018-06-30T21:07:13.640Z,0.63
2018-06-30T21:09:41.635Z,0.87
2018-06-30T21:12:11.108Z,0.80
2018-06-30T21:16:08.569Z,0.53
2018-06-30T21:18:36.674Z,0.63
2018-06-30T21:21:04.808Z,0.60
2018-06-30T21:23:32.909Z,0.60
2018-06-30T21:26:01.077Z,1.80
2018-06-30T21:28:29.116Z,0.90
2018-06-30T21:30:57.188Z,0.93
2018-06-30T21:33:25.140Z,1.00
2018-06-30T21:35:52.993Z,0.90
2018-06-30T21:38:21.136Z,1.00
2018-06-30T21:40:49.226Z,0.60
2018-06-30T21:43:18.631Z,1.17
2018-06-30T21:45:46.777Z,0.90
2018-06-30T21:48:14.873Z,0.70
2018-06-30T21:50:42.904Z,0.47
2018-06-30T21:53:11.046Z,0.40
2018-06-30T21:55:46.139Z,0.60
2018-06-30T21:58:19.008Z,0.50
2018-06-30T22:00:53.954Z,0.43
2018-06-30T22:03:24.269Z,0.57
2018-06-30T22:05:53.957Z,0.70
2018-06-30T22:08:22.263Z,0.57
2018-06-30T22:10:53.420Z,0.93
2018-06-30T22:13:21.531Z,1.10
2018-06-30T22:15:50.296Z,0.50
2018-06-30T22:18:18.355Z,0.80
2018-06-30T22:20:46.413Z,0.80
2018-06-30T22:23:14.468Z,0.70
2018-06-30T22:25:42.490Z,0.50
2018-06-30T22:28:10.569Z,1.00
2018-06-30T22:30:38.616Z,0.50
2018-06-30T22:33:06.725Z,0.57
2018-06-30T22:35:34.772Z,0.70
2018-06-30T22:38:02.901Z,0.67
2018-06-30T22:40:31.086Z,0.50
2018-06-30T22:42:59.204Z,0.60
2018-06-30T22:45:27.279Z,0.90
2018-06-30T22:47:55.330Z,0.80
2018-06-30T22:50:23.381Z,0.70
2018-06-30T22:52:51.417Z,0.73
2018-06-30T22:55:19.487Z,0.70
2018-06-30T22:57:47.524Z,0.50
2018-06-30T23:00:17.452Z,0.57
2018-06-30T23:02:45.519Z,0.60
2018-06-30T23:05:13.594Z,0.60
2018-06-30T23:07:41.636Z,1.10
2018-06-30T23:10:10.988Z,0.60
2018-06-30T23:12:39.184Z,0.80
2018-06-30T23:15:08.916Z,0.57
2018-06-30T23:17:37.180Z,0.80
2018-06-30T23:20:05.460Z,0.50
2018-06-30T23:22:45.111Z,0.53
2018-06-30T23:25:13.196Z,0.60
2018-06-30T23:27:41.277Z,0.60
2018-06-30T23:30:09.365Z,0.70
2018-06-30T23:32:37.404Z,0.60
2018-06-30T23:35:05.480Z,1.00
2018-06-30T23:37:34.318Z,0.50
2018-06-30T23:40:02.367Z,0.70
2018-06-30T23:42:30.401Z,0.50
2018-06-30T23:44:58.460Z,0.60
2018-06-30T23:47:26.661Z,0.90
2018-06-30T23:49:54.952Z,0.70
2018-06-30T23:52:23.145Z,0.87
2018-06-30T23:54:51.212Z,0.67
2018-06-30T23:57:19.260Z,0.80
2018-06-30T23:59:47.382Z,0.60
